createdAt,value
2022-12-03T00:00:53.617Z,45.43
2022-12-03T00:02:56.690Z,43.60
2022-12-03T00:04:59.689Z,40.70
2022-12-03T00:07:04.148Z,42.73
2022-12-03T00:09:07.333Z,42.13
2022-12-03T00:11:10.235Z,42.50
2022-12-03T00:13:13.162Z,37.07
2022-12-03T00:15:16.079Z,43.10
2022-12-03T00:17:18.989Z,38.27
2022-12-03T00:19:21.971Z,39.10
2022-12-03T00:21:25.074Z,37.37
2022-12-03T00:23:29.423Z,36.73
2022-12-03T00:25:32.727Z,35.90
2022-12-03T00:27:35.648Z,35.07
2022-12-03T00:29:38.567Z,35.03
2022-12-03T00:31:42.140Z,36.87
2022-12-03T00:33:45.206Z,30.30
2022-12-03T00:35:48.176Z,34.23
2022-12-03T00:37:51.156Z,31.40
2022-12-03T00:39:55.468Z,32.40
2022-12-03T00:41:58.369Z,32.03
2022-12-03T00:44:01.480Z,29.37
2022-12-03T00:46:04.513Z,28.97
2022-12-03T00:48:07.746Z,28.93
2022-12-03T00:50:11.587Z,28.13
2022-12-03T00:52:14.656Z,28.47
2022-12-03T00:54:17.570Z,28.47
2022-12-03T00:56:21.883Z,29.03
2022-12-03T00:58:24.774Z,29.73
2022-12-03T01:00:27.633Z,28.67
2022-12-03T01:02:30.534Z,27.00
2022-12-03T01:04:33.806Z,29.10
2022-12-03T01:06:36.944Z,31.43
2022-12-03T01:08:39.812Z,34.23
2022-12-03T01:10:42.787Z,29.57
2022-12-03T01:12:47.014Z,30.60
2022-12-03T01:14:50.219Z,29.30
2022-12-03T01:16:53.139Z,30.70
2022-12-03T01:18:56.494Z,30.20
2022-12-03T01:20:59.364Z,30.87
2022-12-03T01:23:02.283Z,30.93
2022-12-03T01:25:06.118Z,31.63
2022-12-03T01:27:08.984Z,28.67
2022-12-03T01:29:13.348Z,30.77
2022-12-03T01:31:33.716Z,34.77
2022-12-03T01:33:36.652Z,35.37
2022-12-03T01:35:39.605Z,28.97
2022-12-03T01:37:42.494Z,36.70
2022-12-03T01:39:45.507Z,31.00
2022-12-03T01:41:49.730Z,27.60
2022-12-03T01:43:53.676Z,28.33
2022-12-03T01:45:57.963Z,32.97
2022-12-03T01:48:00.915Z,29.27
2022-12-03T01:50:07.507Z,32.03
2022-12-03T01:52:13.345Z,28.40
2022-12-03T01:54:19.414Z,27.07
2022-12-03T01:56:22.643Z,27.80
2022-12-03T01:58:28.396Z,29.10
2022-12-03T02:00:31.803Z,28.57
2022-12-03T02:02:36.268Z,30.20
2022-12-03T02:04:39.200Z,26.13
2022-12-03T02:06:43.116Z,26.27
2022-12-03T02:08:46.587Z,26.67
2022-12-03T02:10:49.462Z,27.23
2022-12-03T02:12:55.872Z,25.87
2022-12-03T02:14:59.493Z,29.47
2022-12-03T02:17:02.595Z,26.40
2022-12-03T02:19:11.234Z,25.30
2022-12-03T02:21:21.850Z,27.03
2022-12-03T02:23:31.678Z,25.50
2022-12-03T02:25:37.829Z,28.80
2022-12-03T02:27:40.935Z,29.20
2022-12-03T02:29:44.267Z,25.50
2022-12-03T02:31:47.404Z,24.13
2022-12-03T02:33:50.680Z,23.20
2022-12-03T02:35:53.756Z,21.93
2022-12-03T02:38:00.763Z,23.27
2022-12-03T02:40:08.325Z,24.20
2022-12-03T02:42:36.301Z,22.87
2022-12-03T02:44:39.489Z,22.93
2022-12-03T02:46:42.708Z,19.20
2022-12-03T02:48:45.709Z,22.50
2022-12-03T02:50:51.920Z,21.47
2022-12-03T02:52:57.120Z,17.07
2022-12-03T02:55:00.739Z,19.97
2022-12-03T02:57:03.814Z,18.53
2022-12-03T02:59:08.038Z,18.13
2022-12-03T03:01:11.771Z,16.27
2022-12-03T03:03:15.212Z,16.23
2022-12-03T03:05:21.169Z,17.90
2022-12-03T03:07:24.255Z,18.40
2022-12-03T03:09:27.272Z,16.57
2022-12-03T03:11:30.356Z,16.20
2022-12-03T03:13:34.645Z,17.37
2022-12-03T03:15:40.541Z,16.23
2022-12-03T03:17:44.526Z,17.87
2022-12-03T03:19:47.840Z,18.97
2022-12-03T03:21:50.770Z,17.20
2022-12-03T03:23:53.642Z,16.70
2022-12-03T03:25:59.906Z,17.73
2022-12-03T03:28:02.942Z,14.93
2022-12-03T03:30:07.262Z,16.83
2022-12-03T03:32:11.663Z,14.80
2022-12-03T03:34:15.185Z,17.27
2022-12-03T03:36:20.416Z,18.87
2022-12-03T03:38:24.901Z,15.93
2022-12-03T03:40:28.640Z,16.73
2022-12-03T03:42:31.535Z,17.37
2022-12-03T03:44:34.725Z,17.13
2022-12-03T03:46:38.805Z,17.87
2022-12-03T03:48:44.423Z,18.13
2022-12-03T03:50:48.141Z,19.27
2022-12-03T03:52:51.148Z,15.60
2022-12-03T03:54:54.197Z,16.93
2022-12-03T03:56:57.365Z,16.37
2022-12-03T03:59:00.674Z,15.83
2022-12-03T04:01:03.891Z,16.57
2022-12-03T04:03:07.427Z,19.40
2022-12-03T04:05:17.924Z,17.60
2022-12-03T04:07:21.130Z,15.97
2022-12-03T04:09:24.023Z,17.03
2022-12-03T04:11:44.310Z,15.30
2022-12-03T04:13:47.194Z,17.23
2022-12-03T04:15:50.107Z,17.73
2022-12-03T04:18:07.254Z,16.00
2022-12-03T04:20:12.766Z,17.13
2022-12-03T04:22:33.508Z,15.10
2022-12-03T04:24:36.675Z,15.80
2022-12-03T04:26:57.200Z,15.60
2022-12-03T04:28:59.135Z,15.07
2022-12-03T04:31:22.215Z,17.07
2022-12-03T04:33:42.880Z,15.80
2022-12-03T04:35:46.412Z,16.07
2022-12-03T04:37:49.510Z,17.00
2022-12-03T04:39:52.497Z,18.73
2022-12-03T04:41:54.464Z,16.17
2022-12-03T04:44:15.084Z,14.70
2022-12-03T04:46:18.036Z,17.53
2022-12-03T04:48:20.977Z,15.83
2022-12-03T04:50:24.229Z,14.90
2022-12-03T04:52:28.437Z,16.70
2022-12-03T04:54:31.563Z,14.60
2022-12-03T04:56:34.591Z,17.40
2022-12-03T04:58:37.611Z,15.23
2022-12-03T05:00:40.532Z,16.70
2022-12-03T05:02:43.513Z,16.73
2022-12-03T05:04:46.580Z,15.57
2022-12-03T05:06:49.560Z,17.03
2022-12-03T05:08:53.765Z,15.60
2022-12-03T05:10:56.729Z,17.43
2022-12-03T05:12:59.664Z,18.30
2022-12-03T05:15:02.695Z,16.47
2022-12-03T05:17:05.690Z,18.20
2022-12-03T05:19:09.866Z,17.33
2022-12-03T05:21:11.843Z,17.80
2022-12-03T05:23:15.342Z,17.13
2022-12-03T05:25:19.696Z,16.43
2022-12-03T05:27:24.133Z,19.40
2022-12-03T05:29:27.318Z,16.67
2022-12-03T05:31:30.337Z,15.67
2022-12-03T05:33:33.474Z,18.53
2022-12-03T05:35:36.409Z,17.77
2022-12-03T05:37:39.259Z,18.47
2022-12-03T05:39:42.242Z,18.80
2022-12-03T05:42:04.202Z,19.53
2022-12-03T05:44:07.216Z,16.47
2022-12-03T05:46:10.185Z,17.97
2022-12-03T05:48:15.451Z,17.70
2022-12-03T05:50:18.559Z,18.07
2022-12-03T05:52:21.449Z,19.47
2022-12-03T05:54:24.348Z,16.57
2022-12-03T05:56:27.258Z,18.50
2022-12-03T05:58:31.488Z,18.40
2022-12-03T06:00:42.384Z,18.33
2022-12-03T06:02:46.028Z,18.03
2022-12-03T06:04:49.165Z,19.67
2022-12-03T06:06:52.039Z,19.67
2022-12-03T06:08:54.977Z,17.20
2022-12-03T06:10:57.899Z,17.33
2022-12-03T06:13:00.947Z,17.73
2022-12-03T06:15:06.212Z,17.67
2022-12-03T06:17:09.106Z,18.40
2022-12-03T06:19:11.979Z,20.70
2022-12-03T06:21:14.848Z,19.93
2022-12-03T06:23:17.824Z,18.73
2022-12-03T06:25:20.719Z,20.00
2022-12-03T06:27:23.636Z,20.03
2022-12-03T06:29:26.606Z,19.80
2022-12-03T06:31:30.965Z,21.10
2022-12-03T06:33:33.933Z,19.97
2022-12-03T06:35:37.126Z,19.33
2022-12-03T06:37:40.103Z,23.80
2022-12-03T06:39:43.020Z,22.63
2022-12-03T06:41:46.018Z,22.67
2022-12-03T06:43:49.051Z,24.80
2022-12-03T06:45:52.140Z,22.60
2022-12-03T06:47:56.295Z,22.10
2022-12-03T06:49:59.201Z,20.63
2022-12-03T06:52:02.014Z,19.63
2022-12-03T06:54:05.708Z,25.10
2022-12-03T06:56:09.017Z,22.23
2022-12-03T06:58:11.935Z,20.67
2022-12-03T07:00:15.744Z,23.10
2022-12-03T07:02:18.871Z,19.73
2022-12-03T07:04:23.326Z,21.17
2022-12-03T07:06:26.366Z,21.90
2022-12-03T07:08:29.311Z,20.90
2022-12-03T07:10:32.587Z,21.20
2022-12-03T07:12:35.473Z,19.57
2022-12-03T07:14:38.416Z,18.40
2022-12-03T07:16:43.269Z,17.77
2022-12-03T07:18:46.994Z,21.00
2022-12-03T07:20:51.219Z,22.27
2022-12-03T07:22:54.101Z,19.73
2022-12-03T07:24:57.041Z,19.20
2022-12-03T07:26:59.991Z,22.40
2022-12-03T07:29:03.035Z,19.67
2022-12-03T07:31:06.607Z,22.43
2022-12-03T07:33:09.596Z,20.90
2022-12-03T07:35:12.698Z,23.00
2022-12-03T07:37:22.686Z,20.97
2022-12-03T07:39:26.080Z,21.63
2022-12-03T07:41:28.987Z,23.47
2022-12-03T07:43:32.409Z,24.10
2022-12-03T07:45:35.403Z,22.03
2022-12-03T07:47:38.276Z,22.73
2022-12-03T07:49:41.160Z,23.27
2022-12-03T07:51:49.434Z,22.77
2022-12-03T07:53:53.670Z,23.47
2022-12-03T07:55:56.540Z,25.00
2022-12-03T07:57:59.491Z,26.87
2022-12-03T08:00:02.745Z,24.80
2022-12-03T08:02:05.685Z,25.30
2022-12-03T08:04:09.072Z,26.93
2022-12-03T08:06:11.940Z,25.47
2022-12-03T08:08:14.868Z,25.67
2022-12-03T08:10:19.307Z,27.83
2022-12-03T08:12:39.844Z,24.43
2022-12-03T08:14:43.195Z,21.33
2022-12-03T08:16:47.814Z,23.27
2022-12-03T08:18:52.317Z,23.43
2022-12-03T08:20:55.402Z,21.40
2022-12-03T08:22:58.661Z,23.43
2022-12-03T08:25:01.628Z,22.83
2022-12-03T08:27:18.536Z,23.40
2022-12-03T08:29:21.644Z,24.47
2022-12-03T08:31:32.891Z,24.33
2022-12-03T08:33:37.813Z,23.77
2022-12-03T08:35:45.149Z,23.33
2022-12-03T08:37:48.208Z,23.70
2022-12-03T08:39:55.525Z,25.43
2022-12-03T08:42:21.156Z,21.77
2022-12-03T08:44:28.135Z,24.33
2022-12-03T08:46:31.868Z,22.53
2022-12-03T08:48:36.897Z,26.37
2022-12-03T08:50:41.125Z,23.43
2022-12-03T08:52:44.319Z,22.73
2022-12-03T08:54:53.657Z,25.37
2022-12-03T08:56:57.024Z,22.90
2022-12-03T08:59:02.296Z,23.17
2022-12-03T09:01:27.903Z,24.50
2022-12-03T09:03:32.791Z,24.20
2022-12-03T09:05:37.396Z,25.90
2022-12-03T09:07:40.306Z,27.83
2022-12-03T09:09:43.173Z,23.93
2022-12-03T09:11:46.726Z,23.53
2022-12-03T09:13:49.665Z,28.97
2022-12-03T09:15:52.607Z,27.50
2022-12-03T09:17:56.885Z,26.33
2022-12-03T09:19:59.837Z,30.53
2022-12-03T09:22:02.774Z,27.40
2022-12-03T09:24:05.909Z,27.70
2022-12-03T09:26:08.864Z,27.97
2022-12-03T09:28:11.747Z,30.37
2022-12-03T09:30:15.168Z,29.20
2022-12-03T09:32:18.911Z,33.23
2022-12-03T09:34:23.373Z,30.97
2022-12-03T09:36:26.256Z,32.40
2022-12-03T09:38:29.145Z,29.13
2022-12-03T09:40:32.125Z,32.10
2022-12-03T09:42:35.389Z,34.87
2022-12-03T09:44:38.913Z,30.63
2022-12-03T09:46:43.539Z,31.63
2022-12-03T09:48:46.560Z,33.60
2022-12-03T09:50:51.832Z,30.67
2022-12-03T09:52:57.849Z,32.97
2022-12-03T09:55:02.794Z,33.33
2022-12-03T09:57:05.906Z,37.23
2022-12-03T09:59:14.483Z,32.77
2022-12-03T10:01:17.886Z,33.30
2022-12-03T10:03:29.671Z,32.20
2022-12-03T10:05:46.609Z,33.03
2022-12-03T10:07:53.478Z,36.83
2022-12-03T10:09:56.699Z,34.30
2022-12-03T10:12:00.795Z,35.30
2022-12-03T10:14:03.996Z,32.70
2022-12-03T10:16:11.441Z,33.37
2022-12-03T10:18:19.342Z,33.97
2022-12-03T10:20:24.886Z,32.60
2022-12-03T10:22:27.817Z,35.87
2022-12-03T10:24:33.467Z,32.50
2022-12-03T10:26:40.201Z,34.57
2022-12-03T10:28:46.687Z,34.97
2022-12-03T10:30:55.651Z,36.17
2022-12-03T10:33:02.570Z,36.43
2022-12-03T10:35:10.951Z,38.00
2022-12-03T10:37:17.362Z,34.03
2022-12-03T10:39:20.470Z,36.53
2022-12-03T10:41:27.282Z,36.40
2022-12-03T10:43:30.163Z,39.40
2022-12-03T10:45:33.035Z,39.90
2022-12-03T10:47:36.106Z,37.00
2022-12-03T10:49:39.477Z,40.17
2022-12-03T10:51:42.952Z,39.70
2022-12-03T10:53:45.826Z,41.40
2022-12-03T10:55:51.505Z,35.20
2022-12-03T10:57:55.935Z,41.50
2022-12-03T10:59:59.094Z,41.27
2022-12-03T11:02:04.598Z,37.13
2022-12-03T11:04:07.788Z,37.73
2022-12-03T11:06:15.923Z,34.53
2022-12-03T11:08:21.249Z,34.93
2022-12-03T11:10:24.590Z,36.13
2022-12-03T11:12:34.231Z,37.37
2022-12-03T11:15:12.466Z,36.63
2022-12-03T11:17:35.399Z,38.70
2022-12-03T11:19:49.128Z,39.13
2022-12-03T11:22:29.017Z,39.10
2022-12-03T11:24:32.621Z,36.17
2022-12-03T11:27:26.996Z,41.30
2022-12-03T11:29:55.312Z,40.57
2022-12-03T11:31:59.550Z,41.40
2022-12-03T11:34:40.926Z,36.50
2022-12-03T11:37:17.018Z,44.27
2022-12-03T11:40:04.712Z,39.87
2022-12-03T11:42:30.196Z,40.87
2022-12-03T11:44:33.725Z,36.60
2022-12-03T11:46:44.116Z,40.83
2022-12-03T11:48:50.260Z,39.87
2022-12-03T11:50:54.413Z,35.47
2022-12-03T11:53:01.379Z,36.33
2022-12-03T11:55:15.005Z,38.40
2022-12-03T11:57:37.324Z,35.10
2022-12-03T11:59:58.747Z,37.43
2022-12-03T12:02:01.618Z,37.10
2022-12-03T12:04:06.951Z,39.10
2022-12-03T12:06:12.446Z,34.67
2022-12-03T12:08:20.296Z,36.77
2022-12-03T12:10:47.582Z,34.37
2022-12-03T12:12:54.911Z,35.27
2022-12-03T12:14:59.388Z,31.87
2022-12-03T12:17:03.665Z,32.90
2022-12-03T12:19:30.309Z,38.10
2022-12-03T12:21:47.437Z,39.23
2022-12-03T12:23:50.374Z,39.00
2022-12-03T12:25:54.541Z,32.50
2022-12-03T12:27:58.433Z,35.03
2022-12-03T12:30:03.298Z,31.83
2022-12-03T12:32:15.698Z,31.17
2022-12-03T12:34:19.123Z,33.13
2022-12-03T12:36:23.874Z,32.43
2022-12-03T12:38:29.230Z,31.83
2022-12-03T12:40:34.092Z,31.30
2022-12-03T12:42:38.554Z,31.87
2022-12-03T12:44:41.524Z,33.87
2022-12-03T12:46:48.651Z,30.37
2022-12-03T12:48:55.234Z,30.03
2022-12-03T12:51:09.559Z,32.13
2022-12-03T12:53:21.399Z,29.70
2022-12-03T12:55:25.125Z,30.63
2022-12-03T12:57:28.036Z,29.83
2022-12-03T12:59:30.980Z,34.07
2022-12-03T13:01:35.514Z,31.67
2022-12-03T13:03:40.755Z,31.03
2022-12-03T13:05:45.894Z,30.23
2022-12-03T13:07:49.376Z,33.50
2022-12-03T13:09:55.876Z,30.60
2022-12-03T13:12:01.069Z,29.27
2022-12-03T13:14:11.456Z,31.73
2022-12-03T13:16:20.744Z,33.03
2022-12-03T13:18:27.642Z,32.67
2022-12-03T13:20:30.516Z,29.90
2022-12-03T13:22:33.407Z,31.53
2022-12-03T13:24:39.079Z,28.33
2022-12-03T13:26:43.410Z,29.50
2022-12-03T13:28:46.294Z,31.20
2022-12-03T13:30:49.202Z,31.93
2022-12-03T13:32:52.148Z,26.70
2022-12-03T13:34:57.654Z,31.37
2022-12-03T13:37:01.659Z,31.50
2022-12-03T13:39:13.418Z,28.60
2022-12-03T13:41:37.334Z,27.80
2022-12-03T13:43:44.581Z,28.37
2022-12-03T13:45:49.415Z,30.13
2022-12-03T13:47:57.066Z,28.53
2022-12-03T13:50:04.281Z,35.80
2022-12-03T13:52:14.125Z,33.40
2022-12-03T13:54:21.729Z,31.67
2022-12-03T13:56:29.141Z,27.27
2022-12-03T13:58:32.062Z,32.97
2022-12-03T14:00:36.434Z,32.80
2022-12-03T14:02:41.823Z,34.13
2022-12-03T14:04:44.787Z,33.93
2022-12-03T14:06:47.886Z,30.73
2022-12-03T14:08:51.625Z,33.17
2022-12-03T14:11:00.251Z,31.13
2022-12-03T14:13:03.020Z,58.43
2022-12-03T14:15:08.551Z,32.97
2022-12-03T14:17:13.023Z,31.27
2022-12-03T14:19:16.010Z,28.70
2022-12-03T14:21:18.902Z,34.60
2022-12-03T14:23:21.864Z,32.20
2022-12-03T14:25:24.763Z,32.73
2022-12-03T14:27:28.365Z,29.93
2022-12-03T14:29:31.283Z,40.20
2022-12-03T14:31:34.371Z,35.83
2022-12-03T14:33:38.866Z,30.80
2022-12-03T14:35:41.799Z,33.93
2022-12-03T14:37:44.798Z,35.37
2022-12-03T14:39:47.795Z,37.90
2022-12-03T14:42:08.633Z,35.27
2022-12-03T14:44:11.804Z,36.20
2022-12-03T14:46:14.762Z,35.53
2022-12-03T14:48:18.125Z,37.00
2022-12-03T14:50:22.410Z,36.50
2022-12-03T14:52:25.464Z,39.27
2022-12-03T14:54:28.794Z,36.83
2022-12-03T14:56:31.708Z,38.40
2022-12-03T14:58:34.868Z,37.43
2022-12-03T15:00:38.500Z,39.97
2022-12-03T15:02:41.493Z,42.57
2022-12-03T15:04:44.465Z,41.27
2022-12-03T15:06:48.891Z,42.00
2022-12-03T15:08:51.751Z,43.00
2022-12-03T15:10:54.934Z,40.90
2022-12-03T15:12:57.780Z,40.70
2022-12-03T15:15:00.724Z,40.70
2022-12-03T15:17:03.600Z,45.37
2022-12-03T15:19:06.471Z,45.27
2022-12-03T15:21:09.509Z,46.57
2022-12-03T15:23:14.632Z,47.03
2022-12-03T15:25:24.163Z,44.20
2022-12-03T15:27:27.463Z,44.43
2022-12-03T15:29:30.349Z,44.03
2022-12-03T15:31:33.331Z,49.13
2022-12-03T15:33:36.293Z,46.70
2022-12-03T15:35:39.252Z,50.50
2022-12-03T15:37:42.092Z,49.47
2022-12-03T15:39:48.734Z,48.93
2022-12-03T15:41:51.874Z,47.73
2022-12-03T15:43:54.709Z,51.40
2022-12-03T15:45:57.624Z,52.77
2022-12-03T15:48:00.687Z,56.10
2022-12-03T15:50:03.590Z,50.63
2022-12-03T15:52:07.784Z,53.10
2022-12-03T15:54:12.207Z,47.30
2022-12-03T15:56:16.515Z,52.63
2022-12-03T15:58:19.408Z,51.67
2022-12-03T16:00:22.811Z,51.57
2022-12-03T16:02:26.174Z,51.83
2022-12-03T16:04:29.064Z,54.10
2022-12-03T16:06:31.940Z,50.60
2022-12-03T16:08:34.781Z,47.43
2022-12-03T16:10:37.622Z,47.77
2022-12-03T16:12:41.850Z,53.30
2022-12-03T16:14:44.704Z,54.67
2022-12-03T16:16:47.602Z,53.63
2022-12-03T16:18:50.547Z,49.53
2022-12-03T16:20:53.448Z,48.97
2022-12-03T16:22:56.366Z,53.67
2022-12-03T16:24:59.242Z,47.57
2022-12-03T16:27:02.106Z,49.83
2022-12-03T16:29:06.289Z,55.70
2022-12-03T16:31:09.264Z,46.80
2022-12-03T16:33:12.365Z,54.40
2022-12-03T16:35:15.347Z,52.97
2022-12-03T16:37:18.207Z,52.17
2022-12-03T16:39:21.087Z,55.20
2022-12-03T16:41:23.947Z,64.03
2022-12-03T16:43:26.787Z,59.27
2022-12-03T16:45:48.451Z,59.00
2022-12-03T16:47:51.369Z,59.50
2022-12-03T16:49:54.474Z,59.43
2022-12-03T16:52:12.573Z,56.27
2022-12-03T16:54:15.437Z,55.23
2022-12-03T16:56:18.526Z,59.07
2022-12-03T16:58:21.494Z,57.63
2022-12-03T17:00:25.833Z,61.07
2022-12-03T17:02:30.059Z,70.37
2022-12-03T17:04:33.008Z,59.30
2022-12-03T17:06:35.940Z,65.33
2022-12-03T17:08:41.027Z,58.83
2022-12-03T17:10:46.101Z,62.13
2022-12-03T17:13:09.020Z,69.10
2022-12-03T17:15:12.299Z,67.40
2022-12-03T17:17:15.158Z,70.10
2022-12-03T17:19:19.472Z,60.63
2022-12-03T17:21:22.474Z,62.83
2022-12-03T17:23:25.327Z,66.43
2022-12-03T17:25:28.633Z,67.47
2022-12-03T17:27:31.494Z,66.97
2022-12-03T17:29:34.793Z,73.33
2022-12-03T17:31:41.951Z,69.73
2022-12-03T17:33:45.549Z,78.57
2022-12-03T17:35:49.773Z,71.87
2022-12-03T17:37:52.639Z,64.30
2022-12-03T17:39:55.916Z,69.93
2022-12-03T17:41:58.901Z,66.60
2022-12-03T17:44:05.962Z,70.10
2022-12-03T17:46:12.022Z,68.20
2022-12-03T17:48:14.965Z,63.50
2022-12-03T17:50:18.002Z,69.10
2022-12-03T17:52:22.213Z,65.67
2022-12-03T17:54:37.949Z,72.73
2022-12-03T17:56:49.372Z,64.40
2022-12-03T17:58:52.275Z,67.93
2022-12-03T18:01:00.491Z,68.57
2022-12-03T18:03:05.323Z,72.27
2022-12-03T18:05:08.702Z,70.57
2022-12-03T18:07:11.542Z,72.30
2022-12-03T18:09:15.728Z,69.23
2022-12-03T18:11:18.564Z,80.27
2022-12-03T18:13:21.648Z,70.67
2022-12-03T18:15:24.508Z,72.00
2022-12-03T18:17:27.363Z,72.97
2022-12-03T18:19:30.236Z,84.53
2022-12-03T18:21:33.439Z,67.33
2022-12-03T18:23:36.769Z,68.43
2022-12-03T18:25:42.155Z,64.50
2022-12-03T18:27:46.364Z,64.47
2022-12-03T18:29:49.475Z,63.70
2022-12-03T18:31:52.458Z,70.40
2022-12-03T18:33:55.708Z,70.97
2022-12-03T18:35:59.308Z,63.17
2022-12-03T18:38:02.418Z,63.30
2022-12-03T18:40:12.885Z,65.70
2022-12-03T18:42:19.416Z,61.63
2022-12-03T18:44:22.503Z,56.77
2022-12-03T18:46:52.004Z,55.93
2022-12-03T18:48:50.023Z,62.20
2022-12-03T18:50:52.966Z,57.27
2022-12-03T18:52:55.864Z,59.50
2022-12-03T18:54:58.796Z,52.40
2022-12-03T18:57:01.760Z,51.80
2022-12-03T18:59:07.340Z,49.43
2022-12-03T19:01:16.508Z,55.47
2022-12-03T19:03:19.634Z,52.73
2022-12-03T19:05:22.692Z,52.53
2022-12-03T19:07:25.652Z,51.20
2022-12-03T19:09:28.628Z,47.77
2022-12-03T19:11:33.642Z,48.47
2022-12-03T19:13:36.876Z,47.37
2022-12-03T19:15:41.411Z,45.60
2022-12-03T19:17:48.302Z,53.93
2022-12-03T19:19:51.213Z,44.03
2022-12-03T19:21:54.347Z,53.87
2022-12-03T19:24:23.229Z,53.70
2022-12-03T19:26:20.506Z,46.10
2022-12-03T19:28:23.353Z,53.67
2022-12-03T19:30:26.317Z,51.33
2022-12-03T19:32:30.584Z,47.63
2022-12-03T19:34:33.702Z,50.17
2022-12-03T19:36:36.865Z,49.20
2022-12-03T19:38:39.717Z,54.50
2022-12-03T19:40:42.639Z,52.00
2022-12-03T19:42:45.577Z,46.17
2022-12-03T19:44:48.421Z,50.17
2022-12-03T19:46:51.626Z,51.40
2022-12-03T19:48:56.188Z,57.23
2022-12-03T19:51:19.813Z,46.47
2022-12-03T19:53:24.723Z,47.33
2022-12-03T19:55:27.614Z,45.47
2022-12-03T19:57:30.514Z,48.47
2022-12-03T19:59:33.422Z,53.40
2022-12-03T20:01:40.407Z,49.63
2022-12-03T20:03:45.132Z,47.50
2022-12-03T20:05:50.326Z,50.10
2022-12-03T20:07:53.266Z,48.30
2022-12-03T20:09:56.766Z,44.33
2022-12-03T20:11:59.871Z,57.30
2022-12-03T20:14:05.478Z,43.40
2022-12-03T20:16:12.538Z,44.87
2022-12-03T20:18:15.453Z,39.00
2022-12-03T20:20:18.516Z,41.33
2022-12-03T20:22:22.768Z,38.13
2022-12-03T20:24:25.724Z,43.70
2022-12-03T20:26:29.587Z,34.70
2022-12-03T20:28:32.567Z,35.30
2022-12-03T20:30:35.506Z,38.57
2022-12-03T20:32:44.922Z,38.03
2022-12-03T20:34:49.542Z,36.77
2022-12-03T20:36:52.474Z,35.37
2022-12-03T20:38:57.846Z,35.90
2022-12-03T20:41:02.392Z,32.00
2022-12-03T20:43:05.298Z,37.77
2022-12-03T20:45:09.358Z,34.23
2022-12-03T20:47:12.321Z,35.73
2022-12-03T20:49:15.173Z,36.30
2022-12-03T20:51:20.478Z,33.23
2022-12-03T20:53:25.245Z,34.30
2022-12-03T20:55:29.848Z,33.77
2022-12-03T20:57:32.783Z,32.63
2022-12-03T20:59:35.677Z,36.60
2022-12-03T21:01:40.102Z,35.10
2022-12-03T21:03:43.326Z,36.07
2022-12-03T21:05:46.318Z,37.70
2022-12-03T21:07:52.326Z,34.37
2022-12-03T21:09:55.583Z,33.43
2022-12-03T21:12:00.089Z,35.97
2022-12-03T21:14:04.076Z,38.00
2022-12-03T21:16:10.062Z,35.27
2022-12-03T21:18:15.692Z,35.63
2022-12-03T21:20:21.263Z,34.97
2022-12-03T21:22:24.398Z,31.70
2022-12-03T21:24:27.408Z,34.30
2022-12-03T21:26:30.623Z,36.03
2022-12-03T21:28:35.312Z,37.13
2022-12-03T21:30:41.472Z,33.23
2022-12-03T21:32:44.394Z,29.47
2022-12-03T21:34:47.362Z,40.53
2022-12-03T21:36:50.309Z,36.07
2022-12-03T21:38:53.673Z,34.83
2022-12-03T21:40:57.669Z,29.33
2022-12-03T21:43:00.580Z,35.73
2022-12-03T21:45:05.470Z,37.10
2022-12-03T21:47:14.307Z,31.83
2022-12-03T21:49:19.343Z,37.17
2022-12-03T21:51:22.549Z,34.97
2022-12-03T21:53:25.451Z,35.10
2022-12-03T21:55:28.487Z,38.23
2022-12-03T21:57:31.710Z,35.93
2022-12-03T21:59:34.734Z,33.30
2022-12-03T22:01:44.011Z,33.73
2022-12-03T22:03:50.652Z,34.97
2022-12-03T22:05:53.592Z,34.03
2022-12-03T22:07:56.592Z,35.13
2022-12-03T22:09:59.560Z,33.43
2022-12-03T22:12:02.418Z,33.47
2022-12-03T22:14:06.873Z,33.60
2022-12-03T22:16:11.824Z,36.73
2022-12-03T22:18:16.085Z,29.80
2022-12-03T22:20:19.174Z,31.63
2022-12-03T22:22:22.159Z,33.13
2022-12-03T22:24:25.039Z,38.97
2022-12-03T22:26:27.983Z,32.83
2022-12-03T22:28:30.907Z,31.10
2022-12-03T22:30:33.878Z,30.70
2022-12-03T22:32:36.861Z,32.60
2022-12-03T22:34:42.872Z,29.97
2022-12-03T22:36:45.894Z,31.17
2022-12-03T22:38:49.290Z,29.90
2022-12-03T22:40:52.205Z,27.90
2022-12-03T22:42:55.167Z,33.90
2022-12-03T22:44:58.023Z,31.67
2022-12-03T22:47:00.945Z,32.27
2022-12-03T22:49:07.417Z,31.17
2022-12-03T22:51:14.212Z,31.83
2022-12-03T22:53:17.725Z,30.17
2022-12-03T22:55:20.695Z,34.93
2022-12-03T22:57:23.544Z,30.10
2022-12-03T22:59:26.497Z,32.40
2022-12-03T23:01:31.655Z,35.53
2022-12-03T23:03:34.568Z,33.30
2022-12-03T23:05:39.729Z,34.17
2022-12-03T23:07:44.061Z,35.50
2022-12-03T23:09:47.015Z,32.13
2022-12-03T23:11:50.069Z,36.57
2022-12-03T23:13:53.420Z,33.63
2022-12-03T23:15:56.428Z,31.17
2022-12-03T23:17:59.818Z,29.83
2022-12-03T23:20:03.524Z,35.37
2022-12-03T23:22:06.674Z,36.50
2022-12-03T23:24:11.286Z,31.87
2022-12-03T23:26:15.433Z,35.73
2022-12-03T23:28:18.343Z,33.60
2022-12-03T23:30:21.336Z,35.33
2022-12-03T23:32:24.310Z,38.53
2022-12-03T23:34:27.259Z,36.60
2022-12-03T23:36:33.130Z,34.03
2022-12-03T23:38:36.010Z,39.20
2022-12-03T23:40:44.774Z,35.20
2022-12-03T23:42:50.911Z,35.90
2022-12-03T23:44:53.818Z,34.17
2022-12-03T23:46:56.741Z,39.87
2022-12-03T23:48:59.939Z,35.77
2022-12-03T23:51:07.933Z,36.83
2022-12-03T23:53:10.768Z,37.57
2022-12-03T23:55:13.656Z,40.17
2022-12-03T23:57:18.278Z,38.70
2022-12-03T23:59:21.220Z,42.03
